Terminal Aerodrome Forecast
Issued by NWS Charleston, WV

Current Version | Previous Version | Graphics & Text | Print | Product List | Glossary On
Versions: 1 2 3 4 5 6 7 8 9 10 11 12 13 14 15 16 17 18 19 20 21 22 23 24 25 26 27 28 29 30 31 32
000
FTUS41 KRLX 202332
TAFEKN
TAF
KEKN 202332Z 2100/2124 00000KT P6SM FEW250
     FM211600 22007KT P6SM BKN250
     FM211800 25011G21KT P6SM SCT050
     FM212000 26010G21KT P6SM BKN040
     FM212100 28009KT P6SM BKN035
     FM212300 30008KT P6SM BKN015=

USA.gov is the U.S. government's official web portal to all federal, state and local government web resources and services.